sensor_id;sensor_type;location;lat;lon;timestamp;pressure;altitude;pressure_sealevel;temperature;humidity
76337;BME280;65157;50.082;18.178;2023-07-31T00:00:15;98852.55;;;18.11;73.14
76337;BME280;65157;50.082;18.178;2023-07-31T00:03:01;98854.79;;;18.08;73.02
76337;BME280;65157;50.082;18.178;2023-07-31T00:05:27;98860.67;;;18.10;73.06
76337;BME280;65157;50.082;18.178;2023-07-31T00:07:53;98862.30;;;18.07;73.21
76337;BME280;65157;50.082;18.178;2023-07-31T00:10:19;98867.81;;;18.03;73.28
76337;BME280;65157;50.082;18.178;2023-07-31T00:12:45;98869.14;;;18.00;73.40
76337;BME280;65157;50.082;18.178;2023-07-31T00:15:13;98869.58;;;17.96;73.43
76337;BME280;65157;50.082;18.178;2023-07-31T00:17:39;98864.64;;;17.94;73.55
76337;BME280;65157;50.082;18.178;2023-07-31T00:20:05;98866.99;;;17.91;73.58
76337;BME280;65157;50.082;18.178;2023-07-31T00:22:32;98865.84;;;17.87;73.64
76337;BME280;65157;50.082;18.178;2023-07-31T00:24:58;98860.01;;;17.80;73.64
76337;BME280;65157;50.082;18.178;2023-07-31T00:27:24;98875.54;;;17.82;73.56
76337;BME280;65157;50.082;18.178;2023-07-31T00:29:50;98878.53;;;17.80;73.55
76337;BME280;65157;50.082;18.178;2023-07-31T00:32:16;98876.94;;;17.78;73.53
76337;BME280;65157;50.082;18.178;2023-07-31T00:34:41;98877.70;;;17.75;73.59
76337;BME280;65157;50.082;18.178;2023-07-31T00:37:07;98882.19;;;17.73;73.75
76337;BME280;65157;50.082;18.178;2023-07-31T00:39:35;98884.65;;;17.69;73.75
76337;BME280;65157;50.082;18.178;2023-07-31T00:42:01;98885.13;;;17.64;73.82
76337;BME280;65157;50.082;18.178;2023-07-31T00:44:27;98887.29;;;17.60;73.92
76337;BME280;65157;50.082;18.178;2023-07-31T00:46:53;98886.35;;;17.56;74.09
76337;BME280;65157;50.082;18.178;2023-07-31T00:49:20;98885.42;;;17.53;74.27
76337;BME280;65157;50.082;18.178;2023-07-31T00:51:47;98889.86;;;17.54;74.44
76337;BME280;65157;50.082;18.178;2023-07-31T00:54:12;98891.81;;;17.54;74.66
76337;BME280;65157;50.082;18.178;2023-07-31T00:56:40;98893.11;;;17.54;74.61
76337;BME280;65157;50.082;18.178;2023-07-31T00:59:07;98892.67;;;17.57;74.66
76337;BME280;65157;50.082;18.178;2023-07-31T01:01:33;98891.95;;;17.57;74.88
76337;BME280;65157;50.082;18.178;2023-07-31T01:03:59;98893.81;;;17.61;75.10
76337;BME280;65157;50.082;18.178;2023-07-31T01:06:44;98894.42;;;17.62;74.97
76337;BME280;65157;50.082;18.178;2023-07-31T01:12:04;98904.79;;;17.67;74.96
76337;BME280;65157;50.082;18.178;2023-07-31T01:14:32;98909.42;;;17.69;74.74
76337;BME280;65157;50.082;18.178;2023-07-31T01:16:58;98910.34;;;17.71;74.87
76337;BME280;65157;50.082;18.178;2023-07-31T01:19:26;98909.34;;;17.72;74.87
76337;BME280;65157;50.082;18.178;2023-07-31T01:22:06;98908.89;;;17.73;74.79
76337;BME280;65157;50.082;18.178;2023-07-31T01:27:31;98909.55;;;17.74;74.81
76337;BME280;65157;50.082;18.178;2023-07-31T01:30:05;98914.75;;;17.74;74.96
76337;BME280;65157;50.082;18.178;2023-07-31T01:32:34;98917.20;;;17.74;74.87
76337;BME280;65157;50.082;18.178;2023-07-31T01:35:00;98922.81;;;17.73;75.05
76337;BME280;65157;50.082;18.178;2023-07-31T01:37:30;98921.04;;;17.71;74.97
76337;BME280;65157;50.082;18.178;2023-07-31T01:39:56;98927.61;;;17.71;75.09
76337;BME280;65157;50.082;18.178;2023-07-31T01:42:21;98925.80;;;17.69;75.16
76337;BME280;65157;50.082;18.178;2023-07-31T01:44:47;98927.28;;;17.67;75.31
76337;BME280;65157;50.082;18.178;2023-07-31T01:47:13;98928.41;;;17.68;75.14
76337;BME280;65157;50.082;18.178;2023-07-31T01:49:39;98928.59;;;17.71;75.14
76337;BME280;65157;50.082;18.178;2023-07-31T01:52:05;98928.20;;;17.73;75.17
76337;BME280;65157;50.082;18.178;2023-07-31T01:54:31;98931.83;;;17.75;75.19
76337;BME280;65157;50.082;18.178;2023-07-31T01:56:57;98934.23;;;17.76;75.26
76337;BME280;65157;50.082;18.178;2023-07-31T01:59:23;98933.21;;;17.78;75.05
76337;BME280;65157;50.082;18.178;2023-07-31T02:01:49;98940.42;;;17.79;75.16
76337;BME280;65157;50.082;18.178;2023-07-31T02:04:15;98934.87;;;17.79;75.13
76337;BME280;65157;50.082;18.178;2023-07-31T02:06:41;98936.42;;;17.80;75.08
76337;BME280;65157;50.082;18.178;2023-07-31T02:09:07;98934.73;;;17.81;74.97
76337;BME280;65157;50.082;18.178;2023-07-31T02:11:33;98937.17;;;17.82;74.96
76337;BME280;65157;50.082;18.178;2023-07-31T02:13:59;98939.54;;;17.81;75.12
76337;BME280;65157;50.082;18.178;2023-07-31T02:16:25;98941.83;;;17.79;75.13
76337;BME280;65157;50.082;18.178;2023-07-31T02:18:50;98942.45;;;17.76;75.02
76337;BME280;65157;50.082;18.178;2023-07-31T02:21:17;98946.81;;;17.77;75.08
76337;BME280;65157;50.082;18.178;2023-07-31T02:23:42;98953.58;;;17.75;75.46
76337;BME280;65157;50.082;18.178;2023-07-31T02:26:08;98953.95;;;17.70;75.68
76337;BME280;65157;50.082;18.178;2023-07-31T02:28:34;98960.67;;;17.64;75.84
76337;BME280;65157;50.082;18.178;2023-07-31T02:31:00;98959.63;;;17.59;75.74
76337;BME280;65157;50.082;18.178;2023-07-31T02:33:26;98959.54;;;17.58;75.64
76337;BME280;65157;50.082;18.178;2023-07-31T02:35:52;98961.41;;;17.57;75.50
76337;BME280;65157;50.082;18.178;2023-07-31T02:38:18;98960.05;;;17.53;75.70
76337;BME280;65157;50.082;18.178;2023-07-31T02:40:44;98961.05;;;17.49;75.65
76337;BME280;65157;50.082;18.178;2023-07-31T02:43:10;98956.98;;;17.44;75.46
76337;BME280;65157;50.082;18.178;2023-07-31T02:45:36;98959.25;;;17.44;75.25
76337;BME280;65157;50.082;18.178;2023-07-31T02:48:02;98965.44;;;17.43;75.38
76337;BME280;65157;50.082;18.178;2023-07-31T02:50:28;98967.42;;;17.40;75.26
76337;BME280;65157;50.082;18.178;2023-07-31T02:52:54;98969.95;;;17.37;75.23
76337;BME280;65157;50.082;18.178;2023-07-31T02:55:19;98968.17;;;17.33;74.94
76337;BME280;65157;50.082;18.178;2023-07-31T02:57:45;98969.53;;;17.31;74.77
76337;BME280;65157;50.082;18.178;2023-07-31T03:00:11;98964.70;;;17.29;74.27
76337;BME280;65157;50.082;18.178;2023-07-31T03:02:37;98963.63;;;17.24;73.98
76337;BME280;65157;50.082;18.178;2023-07-31T03:05:04;98963.23;;;17.23;73.78
76337;BME280;65157;50.082;18.178;2023-07-31T03:07:30;98964.48;;;17.20;73.73
76337;BME280;65157;50.082;18.178;2023-07-31T03:09:56;98963.92;;;17.20;73.57
76337;BME280;65157;50.082;18.178;2023-07-31T03:12:22;98966.36;;;17.19;73.60
76337;BME280;65157;50.082;18.178;2023-07-31T03:14:48;98965.23;;;17.20;73.76
76337;BME280;65157;50.082;18.178;2023-07-31T03:17:15;98964.75;;;17.21;73.74
76337;BME280;65157;50.082;18.178;2023-07-31T03:19:42;98963.78;;;17.20;73.47
76337;BME280;65157;50.082;18.178;2023-07-31T03:22:08;98960.74;;;17.18;73.37
76337;BME280;65157;50.082;18.178;2023-07-31T03:24:34;98964.54;;;17.19;73.32
76337;BME280;65157;50.082;18.178;2023-07-31T03:27:00;98962.41;;;17.21;72.81
76337;BME280;65157;50.082;18.178;2023-07-31T03:29:26;98962.77;;;17.21;72.81
76337;BME280;65157;50.082;18.178;2023-07-31T03:31:52;98957.98;;;17.21;72.93
76337;BME280;65157;50.082;18.178;2023-07-31T03:34:18;98960.81;;;17.24;72.94
76337;BME280;65157;50.082;18.178;2023-07-31T03:36:44;98966.89;;;17.28;72.87
76337;BME280;65157;50.082;18.178;2023-07-31T03:39:10;98971.33;;;17.31;72.91
76337;BME280;65157;50.082;18.178;2023-07-31T03:41:37;98970.00;;;17.32;72.72
76337;BME280;65157;50.082;18.178;2023-07-31T03:44:03;98970.38;;;17.34;72.79
76337;BME280;65157;50.082;18.178;2023-07-31T03:46:29;98972.31;;;17.37;72.76
76337;BME280;65157;50.082;18.178;2023-07-31T03:48:55;98969.64;;;17.39;72.72
76337;BME280;65157;50.082;18.178;2023-07-31T03:51:21;98967.59;;;17.41;72.88
76337;BME280;65157;50.082;18.178;2023-07-31T03:53:46;98970.31;;;17.42;72.95
76337;BME280;65157;50.082;18.178;2023-07-31T03:56:13;98971.70;;;17.43;72.71
76337;BME280;65157;50.082;18.178;2023-07-31T03:58:39;98977.31;;;17.44;72.48
76337;BME280;65157;50.082;18.178;2023-07-31T04:01:05;98978.33;;;17.47;72.26
76337;BME280;65157;50.082;18.178;2023-07-31T04:03:31;98979.86;;;17.48;72.21
76337;BME280;65157;50.082;18.178;2023-07-31T04:05:57;98983.10;;;17.50;72.09
76337;BME280;65157;50.082;18.178;2023-07-31T04:08:23;98981.77;;;17.51;71.94
76337;BME280;65157;50.082;18.178;2023-07-31T04:10:49;98982.16;;;17.53;72.16
76337;BME280;65157;50.082;18.178;2023-07-31T04:13:15;98987.45;;;17.55;72.24
76337;BME280;65157;50.082;18.178;2023-07-31T04:15:41;98990.80;;;17.55;72.39
76337;BME280;65157;50.082;18.178;2023-07-31T04:18:07;98993.77;;;17.56;72.69
76337;BME280;65157;50.082;18.178;2023-07-31T04:20:33;98990.99;;;17.55;73.02
76337;BME280;65157;50.082;18.178;2023-07-31T04:22:59;98991.63;;;17.53;73.26
76337;BME280;65157;50.082;18.178;2023-07-31T04:25:25;98992.33;;;17.53;73.28
76337;BME280;65157;50.082;18.178;2023-07-31T04:27:51;98995.11;;;17.55;73.27
76337;BME280;65157;50.082;18.178;2023-07-31T04:30:17;98992.82;;;17.54;73.51
76337;BME280;65157;50.082;18.178;2023-07-31T04:32:43;98987.84;;;17.54;73.56
76337;BME280;65157;50.082;18.178;2023-07-31T04:35:10;98987.02;;;17.56;73.63
76337;BME280;65157;50.082;18.178;2023-07-31T04:37:36;98985.79;;;17.58;73.68
76337;BME280;65157;50.082;18.178;2023-07-31T04:40:02;98986.96;;;17.59;73.76
76337;BME280;65157;50.082;18.178;2023-07-31T04:42:28;98982.31;;;17.61;73.73
76337;BME280;65157;50.082;18.178;2023-07-31T04:44:54;98986.31;;;17.62;73.54
76337;BME280;65157;50.082;18.178;2023-07-31T04:47:20;98989.15;;;17.65;73.74
76337;BME280;65157;50.082;18.178;2023-07-31T04:49:46;98989.34;;;17.67;73.77
76337;BME280;65157;50.082;18.178;2023-07-31T04:52:11;98991.16;;;17.69;73.91
76337;BME280;65157;50.082;18.178;2023-07-31T04:54:37;98991.36;;;17.71;74.04
76337;BME280;65157;50.082;18.178;2023-07-31T04:57:03;98986.09;;;17.72;74.14
76337;BME280;65157;50.082;18.178;2023-07-31T04:59:29;98989.33;;;17.77;73.90
76337;BME280;65157;50.082;18.178;2023-07-31T05:01:55;98993.42;;;17.82;73.79
76337;BME280;65157;50.082;18.178;2023-07-31T05:04:22;98990.81;;;17.85;73.83
76337;BME280;65157;50.082;18.178;2023-07-31T05:06:48;98984.31;;;17.89;73.75
76337;BME280;65157;50.082;18.178;2023-07-31T05:09:14;98984.49;;;17.93;73.33
76337;BME280;65157;50.082;18.178;2023-07-31T05:11:40;98982.66;;;17.96;73.13
76337;BME280;65157;50.082;18.178;2023-07-31T05:14:06;98983.90;;;18.01;73.02
76337;BME280;65157;50.082;18.178;2023-07-31T05:16:32;98982.67;;;18.05;72.75
76337;BME280;65157;50.082;18.178;2023-07-31T05:18:57;98984.52;;;18.07;72.58
76337;BME280;65157;50.082;18.178;2023-07-31T05:21:23;98988.42;;;18.09;72.27
76337;BME280;65157;50.082;18.178;2023-07-31T05:23:49;98995.02;;;18.12;72.27
76337;BME280;65157;50.082;18.178;2023-07-31T05:26:15;98992.84;;;18.17;72.15
76337;BME280;65157;50.082;18.178;2023-07-31T05:28:41;98992.73;;;18.23;72.10
76337;BME280;65157;50.082;18.178;2023-07-31T05:31:07;98992.52;;;18.33;72.08
76337;BME280;65157;50.082;18.178;2023-07-31T05:33:33;98989.02;;;18.41;71.53
76337;BME280;65157;50.082;18.178;2023-07-31T05:35:59;98991.19;;;18.47;70.60
76337;BME280;65157;50.082;18.178;2023-07-31T05:38:25;98992.14;;;18.51;70.99
76337;BME280;65157;50.082;18.178;2023-07-31T05:40:51;98990.41;;;18.59;70.80
76337;BME280;65157;50.082;18.178;2023-07-31T05:43:17;98993.91;;;18.68;70.92
76337;BME280;65157;50.082;18.178;2023-07-31T05:45:43;98990.59;;;18.75;70.77
76337;BME280;65157;50.082;18.178;2023-07-31T05:48:10;98990.49;;;18.83;70.62
76337;BME280;65157;50.082;18.178;2023-07-31T05:50:36;98991.25;;;18.91;70.04
76337;BME280;65157;50.082;18.178;2023-07-31T05:53:02;98991.77;;;18.98;69.29
76337;BME280;65157;50.082;18.178;2023-07-31T05:55:28;98994.19;;;19.03;69.16
76337;BME280;65157;50.082;18.178;2023-07-31T05:57:54;99000.25;;;19.06;68.87
76337;BME280;65157;50.082;18.178;2023-07-31T06:00:20;98998.06;;;19.11;68.71
76337;BME280;65157;50.082;18.178;2023-07-31T06:02:47;98999.56;;;19.16;68.61
76337;BME280;65157;50.082;18.178;2023-07-31T06:05:13;98999.80;;;19.20;68.51
76337;BME280;65157;50.082;18.178;2023-07-31T06:07:39;99002.97;;;19.26;68.67
76337;BME280;65157;50.082;18.178;2023-07-31T06:10:06;99004.64;;;19.33;68.79
76337;BME280;65157;50.082;18.178;2023-07-31T06:12:32;99006.48;;;19.41;68.53
76337;BME280;65157;50.082;18.178;2023-07-31T06:14:59;99002.02;;;19.46;68.24
76337;BME280;65157;50.082;18.178;2023-07-31T06:17:25;99003.50;;;19.54;68.53
76337;BME280;65157;50.082;18.178;2023-07-31T06:19:51;99003.09;;;19.61;68.44
76337;BME280;65157;50.082;18.178;2023-07-31T06:22:17;99001.92;;;19.66;67.68
76337;BME280;65157;50.082;18.178;2023-07-31T06:24:43;99005.46;;;19.71;67.80
76337;BME280;65157;50.082;18.178;2023-07-31T06:27:09;99003.27;;;19.76;67.94
76337;BME280;65157;50.082;18.178;2023-07-31T06:29:35;99002.55;;;19.84;67.95
76337;BME280;65157;50.082;18.178;2023-07-31T06:32:01;99007.90;;;19.97;67.66
76337;BME280;65157;50.082;18.178;2023-07-31T06:34:27;99003.21;;;20.04;66.15
76337;BME280;65157;50.082;18.178;2023-07-31T06:36:53;98999.52;;;20.03;65.64
76337;BME280;65157;50.082;18.178;2023-07-31T06:39:19;98999.98;;;20.04;64.98
76337;BME280;65157;50.082;18.178;2023-07-31T06:41:45;99001.05;;;20.04;64.75
76337;BME280;65157;50.082;18.178;2023-07-31T06:44:10;98998.11;;;20.03;64.87
76337;BME280;65157;50.082;18.178;2023-07-31T06:46:37;98995.89;;;20.08;65.09
76337;BME280;65157;50.082;18.178;2023-07-31T06:49:03;98994.98;;;20.12;64.39
76337;BME280;65157;50.082;18.178;2023-07-31T06:51:29;98999.63;;;20.20;65.17
76337;BME280;65157;50.082;18.178;2023-07-31T06:53:55;99000.48;;;20.30;63.85
76337;BME280;65157;50.082;18.178;2023-07-31T06:56:22;99000.07;;;20.30;63.42
76337;BME280;65157;50.082;18.178;2023-07-31T06:58:48;99004.96;;;20.34;63.43
76337;BME280;65157;50.082;18.178;2023-07-31T07:01:14;99005.73;;;20.46;63.81
76337;BME280;65157;50.082;18.178;2023-07-31T07:03:40;99011.95;;;20.54;63.08
76337;BME280;65157;50.082;18.178;2023-07-31T07:06:07;99005.08;;;20.57;61.75
76337;BME280;65157;50.082;18.178;2023-07-31T07:08:34;99000.91;;;20.62;62.19
76337;BME280;65157;50.082;18.178;2023-07-31T07:11:00;99002.21;;;20.73;61.84
76337;BME280;65157;50.082;18.178;2023-07-31T07:13:26;99001.51;;;20.83;60.50
76337;BME280;65157;50.082;18.178;2023-07-31T07:15:52;98999.75;;;20.93;60.24
76337;BME280;65157;50.082;18.178;2023-07-31T07:18:18;98997.02;;;21.01;59.40
76337;BME280;65157;50.082;18.178;2023-07-31T07:20:50;98990.05;;;21.07;59.68
76337;BME280;65157;50.082;18.178;2023-07-31T07:23:16;98993.02;;;21.18;59.45
76337;BME280;65157;50.082;18.178;2023-07-31T07:25:45;98991.48;;;21.23;58.60
76337;BME280;65157;50.082;18.178;2023-07-31T07:28:11;98992.64;;;21.22;57.59
76337;BME280;65157;50.082;18.178;2023-07-31T07:30:37;98992.39;;;21.25;57.86
76337;BME280;65157;50.082;18.178;2023-07-31T07:33:03;98991.92;;;21.30;57.72
76337;BME280;65157;50.082;18.178;2023-07-31T07:35:29;98986.45;;;21.41;57.73
76337;BME280;65157;50.082;18.178;2023-07-31T07:37:55;98986.54;;;21.62;57.13
76337;BME280;65157;50.082;18.178;2023-07-31T07:40:21;98984.15;;;21.85;56.30
76337;BME280;65157;50.082;18.178;2023-07-31T07:42:47;98982.15;;;22.03;55.61
76337;BME280;65157;50.082;18.178;2023-07-31T07:45:13;98978.44;;;22.23;56.32
76337;BME280;65157;50.082;18.178;2023-07-31T07:47:40;98982.26;;;22.40;56.09
76337;BME280;65157;50.082;18.178;2023-07-31T07:50:07;98985.50;;;22.53;55.61
76337;BME280;65157;50.082;18.178;2023-07-31T07:52:33;98978.77;;;22.65;54.70
76337;BME280;65157;50.082;18.178;2023-07-31T07:54:59;98974.83;;;22.74;53.98
76337;BME280;65157;50.082;18.178;2023-07-31T07:57:26;98973.92;;;22.87;53.28
76337;BME280;65157;50.082;18.178;2023-07-31T07:59:52;98975.83;;;23.08;53.47
76337;BME280;65157;50.082;18.178;2023-07-31T08:02:18;98972.55;;;23.28;52.60
76337;BME280;65157;50.082;18.178;2023-07-31T08:04:46;98976.70;;;23.48;53.48
76337;BME280;65157;50.082;18.178;2023-07-31T08:07:16;98976.16;;;23.73;52.57
76337;BME280;65157;50.082;18.178;2023-07-31T08:09:42;98970.52;;;23.92;52.08
76337;BME280;65157;50.082;18.178;2023-07-31T08:12:08;98967.55;;;24.10;51.15
76337;BME280;65157;50.082;18.178;2023-07-31T08:14:34;98964.95;;;24.16;49.69
76337;BME280;65157;50.082;18.178;2023-07-31T08:17:00;98965.89;;;24.21;50.67
76337;BME280;65157;50.082;18.178;2023-07-31T08:19:27;98967.17;;;24.42;50.59
76337;BME280;65157;50.082;18.178;2023-07-31T08:21:53;98963.32;;;24.53;49.25
76337;BME280;65157;50.082;18.178;2023-07-31T08:24:19;98963.36;;;24.59;49.27
76337;BME280;65157;50.082;18.178;2023-07-31T08:26:45;98968.02;;;24.68;48.28
76337;BME280;65157;50.082;18.178;2023-07-31T08:29:11;98966.47;;;24.74;46.76
76337;BME280;65157;50.082;18.178;2023-07-31T08:31:37;98964.73;;;24.77;47.40
76337;BME280;65157;50.082;18.178;2023-07-31T08:34:03;98963.05;;;24.86;46.36
76337;BME280;65157;50.082;18.178;2023-07-31T08:36:29;98964.14;;;25.00;46.30
76337;BME280;65157;50.082;18.178;2023-07-31T08:38:55;98968.47;;;25.03;45.68
76337;BME280;65157;50.082;18.178;2023-07-31T08:41:21;98962.06;;;24.99;44.63
76337;BME280;65157;50.082;18.178;2023-07-31T08:43:48;98958.45;;;24.97;45.32
76337;BME280;65157;50.082;18.178;2023-07-31T08:46:15;98957.11;;;24.99;45.31
76337;BME280;65157;50.082;18.178;2023-07-31T08:48:41;98955.98;;;25.10;45.14
76337;BME280;65157;50.082;18.178;2023-07-31T08:51:08;98956.28;;;25.11;43.60
76337;BME280;65157;50.082;18.178;2023-07-31T08:53:34;98959.48;;;25.06;43.48
76337;BME280;65157;50.082;18.178;2023-07-31T08:56:00;98952.83;;;25.10;43.45
76337;BME280;65157;50.082;18.178;2023-07-31T08:58:32;98949.21;;;25.12;43.02
76337;BME280;65157;50.082;18.178;2023-07-31T09:01:01;98950.97;;;25.04;42.73
76337;BME280;65157;50.082;18.178;2023-07-31T09:03:33;98948.27;;;24.93;43.67
76337;BME280;65157;50.082;18.178;2023-07-31T09:06:00;98952.29;;;24.95;43.41
76337;BME280;65157;50.082;18.178;2023-07-31T09:08:30;98939.99;;;25.02;43.50
76337;BME280;65157;50.082;18.178;2023-07-31T09:10:59;98943.82;;;25.04;44.05
76337;BME280;65157;50.082;18.178;2023-07-31T09:13:27;98938.72;;;25.14;44.78
76337;BME280;65157;50.082;18.178;2023-07-31T09:15:53;98931.73;;;25.30;43.87
76337;BME280;65157;50.082;18.178;2023-07-31T09:18:19;98933.08;;;25.48;43.44
76337;BME280;65157;50.082;18.178;2023-07-31T09:20:45;98931.14;;;25.54;42.84
76337;BME280;65157;50.082;18.178;2023-07-31T09:23:13;98930.68;;;25.52;43.31
76337;BME280;65157;50.082;18.178;2023-07-31T09:25:43;98931.30;;;25.51;43.24
76337;BME280;65157;50.082;18.178;2023-07-31T09:28:10;98926.73;;;25.55;43.64
76337;BME280;65157;50.082;18.178;2023-07-31T09:30:50;98924.90;;;25.74;44.53
76337;BME280;65157;50.082;18.178;2023-07-31T09:33:18;98921.38;;;25.95;42.14
76337;BME280;65157;50.082;18.178;2023-07-31T09:35:44;98922.89;;;25.96;41.11
76337;BME280;65157;50.082;18.178;2023-07-31T09:38:12;98919.85;;;25.94;41.91
76337;BME280;65157;50.082;18.178;2023-07-31T09:40:40;98918.52;;;26.07;41.50
76337;BME280;65157;50.082;18.178;2023-07-31T09:43:08;98926.69;;;26.14;40.01
76337;BME280;65157;50.082;18.178;2023-07-31T09:45:36;98919.55;;;26.08;40.42
76337;BME280;65157;50.082;18.178;2023-07-31T09:48:03;98915.48;;;26.01;41.05
76337;BME280;65157;50.082;18.178;2023-07-31T09:50:32;98917.14;;;25.97;40.91
76337;BME280;65157;50.082;18.178;2023-07-31T09:52:58;98915.38;;;26.13;41.78
76337;BME280;65157;50.082;18.178;2023-07-31T09:55:24;98907.76;;;26.29;40.66
76337;BME280;65157;50.082;18.178;2023-07-31T09:57:50;98904.41;;;26.36;39.26
76337;BME280;65157;50.082;18.178;2023-07-31T10:00:18;98900.84;;;26.20;39.22
76337;BME280;65157;50.082;18.178;2023-07-31T10:02:50;98898.34;;;26.16;39.26
76337;BME280;65157;50.082;18.178;2023-07-31T10:05:17;98890.76;;;26.23;40.21
76337;BME280;65157;50.082;18.178;2023-07-31T10:07:54;98894.63;;;26.42;40.61
76337;BME280;65157;50.082;18.178;2023-07-31T10:10:22;98888.60;;;26.37;38.99
76337;BME280;65157;50.082;18.178;2023-07-31T10:12:48;98886.80;;;26.37;39.35
76337;BME280;65157;50.082;18.178;2023-07-31T10:15:16;98887.38;;;26.38;41.30
76337;BME280;65157;50.082;18.178;2023-07-31T10:17:42;98886.14;;;26.46;40.76
76337;BME280;65157;50.082;18.178;2023-07-31T10:20:09;98884.91;;;26.45;39.55
76337;BME280;65157;50.082;18.178;2023-07-31T10:22:35;98879.86;;;26.31;39.10
76337;BME280;65157;50.082;18.178;2023-07-31T10:25:02;98876.98;;;26.16;38.96
76337;BME280;65157;50.082;18.178;2023-07-31T10:27:28;98869.19;;;26.23;40.33
76337;BME280;65157;50.082;18.178;2023-07-31T10:29:55;98872.08;;;26.58;41.55
76337;BME280;65157;50.082;18.178;2023-07-31T10:32:24;98876.38;;;26.72;39.68
76337;BME280;65157;50.082;18.178;2023-07-31T10:34:51;98871.09;;;26.62;39.42
76337;BME280;65157;50.082;18.178;2023-07-31T10:37:21;98869.09;;;26.48;39.30
76337;BME280;65157;50.082;18.178;2023-07-31T10:42:36;98861.02;;;26.47;39.28
76337;BME280;65157;50.082;18.178;2023-07-31T10:45:07;98865.34;;;26.37;38.12
76337;BME280;65157;50.082;18.178;2023-07-31T10:47:44;98867.76;;;26.17;38.96
76337;BME280;65157;50.082;18.178;2023-07-31T10:52:56;98857.89;;;26.36;41.09
76337;BME280;65157;50.082;18.178;2023-07-31T10:55:42;98856.50;;;26.69;40.95
76337;BME280;65157;50.082;18.178;2023-07-31T10:58:11;98856.00;;;26.97;40.30
76337;BME280;65157;50.082;18.178;2023-07-31T11:00:39;98854.10;;;27.10;39.51
76337;BME280;65157;50.082;18.178;2023-07-31T11:03:10;98852.47;;;27.19;39.74
76337;BME280;65157;50.082;18.178;2023-07-31T11:08:13;98848.27;;;26.86;37.31
76337;BME280;65157;50.082;18.178;2023-07-31T11:10:39;98846.99;;;26.51;38.06
76337;BME280;65157;50.082;18.178;2023-07-31T11:13:05;98845.05;;;26.31;39.18
76337;BME280;65157;50.082;18.178;2023-07-31T11:15:31;98843.39;;;26.27;39.35
76337;BME280;65157;50.082;18.178;2023-07-31T11:17:57;98837.75;;;26.20;38.47
76337;BME280;65157;50.082;18.178;2023-07-31T11:20:24;98835.03;;;26.15;39.92
76337;BME280;65157;50.082;18.178;2023-07-31T11:22:49;98834.38;;;26.16;39.82
76337;BME280;65157;50.082;18.178;2023-07-31T11:25:16;98830.48;;;26.07;38.50
76337;BME280;65157;50.082;18.178;2023-07-31T11:27:43;98832.17;;;26.05;40.54
76337;BME280;65157;50.082;18.178;2023-07-31T11:30:10;98831.64;;;26.02;40.29
76337;BME280;65157;50.082;18.178;2023-07-31T11:32:37;98833.36;;;26.02;39.40
76337;BME280;65157;50.082;18.178;2023-07-31T11:35:03;98834.31;;;25.91;39.15
76337;BME280;65157;50.082;18.178;2023-07-31T11:37:39;98832.77;;;25.72;39.74
76337;BME280;65157;50.082;18.178;2023-07-31T11:40:06;98833.06;;;25.57;39.51
76337;BME280;65157;50.082;18.178;2023-07-31T11:42:32;98836.29;;;25.47;40.52
76337;BME280;65157;50.082;18.178;2023-07-31T11:44:58;98839.85;;;25.48;41.59
76337;BME280;65157;50.082;18.178;2023-07-31T11:47:25;98837.17;;;25.46;40.23
76337;BME280;65157;50.082;18.178;2023-07-31T11:49:51;98833.90;;;25.39;40.04
76337;BME280;65157;50.082;18.178;2023-07-31T11:52:18;98829.98;;;25.34;41.03
76337;BME280;65157;50.082;18.178;2023-07-31T11:54:44;98828.48;;;25.33;41.51
76337;BME280;65157;50.082;18.178;2023-07-31T11:57:10;98825.38;;;25.31;41.80
76337;BME280;65157;50.082;18.178;2023-07-31T11:59:37;98819.39;;;25.32;41.57
76337;BME280;65157;50.082;18.178;2023-07-31T12:02:04;98815.70;;;25.31;41.69
76337;BME280;65157;50.082;18.178;2023-07-31T12:04:30;98814.82;;;25.34;41.14
76337;BME280;65157;50.082;18.178;2023-07-31T12:06:56;98814.38;;;25.33;41.15
76337;BME280;65157;50.082;18.178;2023-07-31T12:09:22;98813.35;;;25.32;41.82
76337;BME280;65157;50.082;18.178;2023-07-31T12:11:48;98810.82;;;25.34;42.42
76337;BME280;65157;50.082;18.178;2023-07-31T12:14:29;98807.64;;;25.40;42.00
76337;BME280;65157;50.082;18.178;2023-07-31T12:16:58;98801.23;;;25.42;41.91
76337;BME280;65157;50.082;18.178;2023-07-31T12:19:26;98801.27;;;25.47;42.09
76337;BME280;65157;50.082;18.178;2023-07-31T12:21:53;98794.45;;;25.46;42.14
76337;BME280;65157;50.082;18.178;2023-07-31T12:24:19;98792.36;;;25.45;43.04
76337;BME280;65157;50.082;18.178;2023-07-31T12:26:45;98789.61;;;25.43;41.14
76337;BME280;65157;50.082;18.178;2023-07-31T12:29:11;98785.01;;;25.39;40.89
76337;BME280;65157;50.082;18.178;2023-07-31T12:31:41;98779.84;;;25.53;41.07
76337;BME280;65157;50.082;18.178;2023-07-31T12:34:17;98779.48;;;25.67;40.62
76337;BME280;65157;50.082;18.178;2023-07-31T12:36:44;98775.16;;;25.71;40.18
76337;BME280;65157;50.082;18.178;2023-07-31T12:39:10;98773.97;;;25.76;40.00
76337;BME280;65157;50.082;18.178;2023-07-31T12:41:36;98776.61;;;25.76;41.09
76337;BME280;65157;50.082;18.178;2023-07-31T12:44:02;98774.54;;;25.79;41.82
76337;BME280;65157;50.082;18.178;2023-07-31T12:46:28;98775.27;;;25.88;42.64
76337;BME280;65157;50.082;18.178;2023-07-31T12:48:54;98773.20;;;26.02;42.86
76337;BME280;65157;50.082;18.178;2023-07-31T12:51:20;98775.11;;;26.01;42.43
76337;BME280;65157;50.082;18.178;2023-07-31T12:53:46;98770.69;;;26.06;42.31
76337;BME280;65157;50.082;18.178;2023-07-31T12:56:12;98769.96;;;26.06;41.70
76337;BME280;65157;50.082;18.178;2023-07-31T12:58:38;98768.55;;;26.01;41.85
76337;BME280;65157;50.082;18.178;2023-07-31T13:01:04;98769.20;;;26.13;41.56